Terminal Aerodrome Forecast
Issued by NWS

Home | Current Version | Previous Version | Text Only | Print | Product List | Glossary On
Versions: 1 2 3 4 5 6 7 8 9 10 11 12 13
000
FTUS43 KICT 291122
TAFCNU
TAF
KCNU 291122Z 2912/3012 06005KT P6SM FEW060 FEW150
     FM291800 08009KT P6SM SCT250
     FM300000 04011KT P6SM OVC100
     FM300600 02013KT P6SM OVC015=

USA.gov is the U.S. government's official web portal to all federal, state and local government web resources and services.